createdAt,value
2018-08-04T00:00:07.063Z,99458.98
2018-08-04T00:02:47.905Z,99458.48
2018-08-04T00:05:34.726Z,99456.98
2018-08-04T00:08:11.424Z,99450.97
2018-08-04T00:10:46.321Z,99451.32
2018-08-04T00:13:21.864Z,99448.42
2018-08-04T00:15:59.345Z,99445.62
2018-08-04T00:18:37.465Z,99444.09
2018-08-04T00:21:14.952Z,99448.41
2018-08-04T00:23:52.437Z,99452.27
2018-08-04T00:26:32.033Z,99451.25
2018-08-04T00:29:08.988Z,99445.63
2018-08-04T00:31:44.076Z,99448.12
2018-08-04T00:34:20.420Z,99444.78
2018-08-04T00:37:00.345Z,99443.73
2018-08-04T00:39:37.283Z,99445.60
2018-08-04T00:42:14.035Z,99444.25
2018-08-04T00:44:49.964Z,99445.08
2018-08-04T00:47:25.293Z,99440.05
2018-08-04T00:50:06.212Z,99445.67
2018-08-04T00:52:40.883Z,99444.77
2018-08-04T00:55:18.257Z,99453.91
2018-08-04T00:57:54.940Z,99438.75
2018-08-04T01:00:33.559Z,99439.83
2018-08-04T01:03:07.844Z,99442.17
2018-08-04T01:05:45.902Z,99442.41
2018-08-04T01:08:20.085Z,99445.62
2018-08-04T01:10:57.683Z,99446.64
2018-08-04T01:13:33.331Z,99444.47
2018-08-04T01:16:10.912Z,99447.94
2018-08-04T01:18:46.656Z,99440.72
2018-08-04T01:21:23.422Z,99444.02
2018-08-04T01:23:59.571Z,99451.80
2018-08-04T01:26:35.489Z,99450.46
2018-08-04T01:29:11.652Z,99446.95
2018-08-04T01:31:47.769Z,99447.63
2018-08-04T01:34:25.601Z,99446.38
2018-08-04T01:37:05.873Z,99442.02
2018-08-04T01:39:43.117Z,99439.34
2018-08-04T01:42:18.052Z,99436.48
2018-08-04T01:44:56.998Z,99430.75
2018-08-04T01:47:32.043Z,99435.27
2018-08-04T01:50:08.274Z,99428.66
2018-08-04T01:52:44.571Z,99436.62
2018-08-04T01:55:24.766Z,99430.31
2018-08-04T01:58:00.619Z,99427.59
2018-08-04T02:00:36.432Z,99429.61
2018-08-04T02:03:13.423Z,99427.94
2018-08-04T02:05:48.158Z,99420.52
2018-08-04T02:08:25.248Z,99418.46
2018-08-04T02:11:01.599Z,99419.63
2018-08-04T02:13:38.107Z,99420.97
2018-08-04T02:16:15.664Z,99421.02
2018-08-04T02:18:51.238Z,99416.79
2018-08-04T02:21:27.695Z,99412.64
2018-08-04T02:24:00.963Z,99410.12
2018-08-04T02:26:41.580Z,99414.30
2018-08-04T02:29:22.487Z,99417.58
2018-08-04T02:31:58.084Z,99419.95
2018-08-04T02:34:35.727Z,99421.09
2018-08-04T02:37:13.237Z,99419.30
2018-08-04T02:39:50.578Z,99419.82
2018-08-04T02:42:27.779Z,99426.42
2018-08-04T02:45:03.046Z,99421.63
2018-08-04T02:47:41.351Z,99413.48
2018-08-04T02:50:15.604Z,99415.16
2018-08-04T02:52:52.385Z,99417.19
2018-08-04T02:55:27.268Z,99416.13
2018-08-04T02:58:01.840Z,99417.55
2018-08-04T03:00:40.109Z,99423.08
2018-08-04T03:03:14.943Z,99423.92
2018-08-04T03:05:53.224Z,99423.81
2018-08-04T03:08:28.424Z,99423.97
2018-08-04T03:11:02.321Z,99413.18
2018-08-04T03:13:38.345Z,99410.61
2018-08-04T03:16:14.390Z,99411.39
2018-08-04T03:18:50.757Z,99419.69
2018-08-04T03:21:26.771Z,99418.44
2018-08-04T03:24:05.343Z,99416.15
2018-08-04T03:26:41.679Z,99419.63
2018-08-04T03:29:17.213Z,99420.20
2018-08-04T03:31:52.854Z,99414.41
2018-08-04T03:34:30.087Z,99416.25
2018-08-04T03:37:07.543Z,99423.44
2018-08-04T03:39:44.123Z,99419.84
2018-08-04T03:42:21.038Z,99416.97
2018-08-04T03:44:58.180Z,99421.32
2018-08-04T03:47:34.538Z,99423.36
2018-08-04T03:50:09.821Z,99427.36
2018-08-04T03:52:43.662Z,99424.87
2018-08-04T03:55:18.017Z,99424.81
2018-08-04T03:57:58.418Z,99432.10
2018-08-04T04:00:35.165Z,99429.67
2018-08-04T04:03:10.982Z,99427.72
2018-08-04T04:05:46.395Z,99434.77
2018-08-04T04:08:21.054Z,99428.84
2018-08-04T04:10:56.345Z,99437.61
2018-08-04T04:13:30.944Z,99439.53
2018-08-04T04:16:08.075Z,99440.83
2018-08-04T04:18:47.150Z,99441.50
2018-08-04T04:21:24.123Z,99443.90
2018-08-04T04:24:05.360Z,99449.23
2018-08-04T04:26:42.842Z,99447.05
2018-08-04T04:29:17.291Z,99444.42
2018-08-04T04:31:55.419Z,99443.16
2018-08-04T04:34:36.724Z,99446.11
2018-08-04T04:37:12.424Z,99441.43
2018-08-04T04:39:47.244Z,99452.47
2018-08-04T04:42:22.365Z,99454.68
2018-08-04T04:45:00.280Z,99454.00
2018-08-04T04:47:35.207Z,99458.73
2018-08-04T04:50:12.036Z,99455.15
2018-08-04T04:52:48.997Z,99461.79
2018-08-04T04:55:27.661Z,99464.66
2018-08-04T04:58:01.972Z,99462.52
2018-08-04T05:00:39.106Z,99461.81
2018-08-04T05:03:16.679Z,99454.48
2018-08-04T05:05:52.938Z,99456.99
2018-08-04T05:08:29.124Z,99461.23
2018-08-04T05:11:03.682Z,99464.04
2018-08-04T05:13:38.611Z,99467.70
2018-08-04T05:16:15.578Z,99461.59
2018-08-04T05:18:51.134Z,99461.87
2018-08-04T05:21:27.509Z,99464.25
2018-08-04T05:24:04.320Z,99469.73
2018-08-04T05:26:37.859Z,99469.94
2018-08-04T05:29:16.339Z,99469.37
2018-08-04T05:31:53.521Z,99464.69
2018-08-04T05:34:31.283Z,99468.78
2018-08-04T05:37:08.652Z,99468.55
2018-08-04T05:39:44.559Z,99471.20
2018-08-04T05:42:22.606Z,99470.95
2018-08-04T05:44:58.528Z,99474.48
2018-08-04T05:47:36.541Z,99467.41
2018-08-04T05:50:11.021Z,99474.13
2018-08-04T05:52:46.149Z,99466.16
2018-08-04T05:55:22.626Z,99472.72
2018-08-04T05:57:56.831Z,99472.30
2018-08-04T06:00:35.041Z,99468.83
2018-08-04T06:03:13.639Z,99468.52
2018-08-04T06:05:48.595Z,99477.61
2018-08-04T06:08:24.518Z,99465.93
2018-08-04T06:11:01.660Z,99464.61
2018-08-04T06:13:38.263Z,99467.15
2018-08-04T06:16:16.433Z,99465.30
2018-08-04T06:18:56.383Z,99467.66
2018-08-04T06:21:34.057Z,99465.33
2018-08-04T06:24:11.079Z,99463.35
2018-08-04T06:26:46.169Z,99463.35
2018-08-04T06:29:22.445Z,99471.59
2018-08-04T06:31:59.692Z,99473.42
2018-08-04T06:34:35.655Z,99472.58
2018-08-04T06:37:13.151Z,99481.09
2018-08-04T06:39:48.918Z,99472.09
2018-08-04T06:42:27.168Z,99480.59
2018-08-04T06:45:00.482Z,99470.55
2018-08-04T06:47:34.780Z,99478.37
2018-08-04T06:50:08.416Z,99477.03
2018-08-04T06:52:44.229Z,99482.20
2018-08-04T06:55:19.599Z,99484.17
2018-08-04T06:57:55.700Z,99477.44
2018-08-04T07:00:31.663Z,99481.74
2018-08-04T07:03:06.988Z,99484.86
2018-08-04T07:05:41.909Z,99484.82
2018-08-04T07:08:20.606Z,99482.74
2018-08-04T07:10:56.029Z,99478.62
2018-08-04T07:13:33.335Z,99482.16
2018-08-04T07:16:08.453Z,99483.52
2018-08-04T07:18:42.534Z,99485.44
2018-08-04T07:21:11.616Z,99491.89
2018-08-04T07:23:40.588Z,99491.95
2018-08-04T07:26:12.098Z,99492.63
2018-08-04T07:28:46.876Z,99492.53
2018-08-04T07:31:20.604Z,99493.10
2018-08-04T07:33:49.331Z,99500.53
2018-08-04T07:36:28.672Z,99495.08
2018-08-04T07:39:14.377Z,99490.72
2018-08-04T07:41:55.607Z,99497.47
2018-08-04T07:44:31.562Z,99490.48
2018-08-04T07:47:03.830Z,99493.11
2018-08-04T07:49:39.916Z,99494.84
2018-08-04T07:52:12.651Z,99490.05
2018-08-04T07:54:46.997Z,99495.30
2018-08-04T07:57:22.270Z,99497.53
2018-08-04T07:59:56.107Z,99493.60
2018-08-04T08:02:32.626Z,99493.21
2018-08-04T08:05:06.933Z,99482.00
2018-08-04T08:07:40.628Z,99487.12
2018-08-04T08:10:15.371Z,99487.73
2018-08-04T08:12:49.888Z,99477.66
2018-08-04T08:15:24.273Z,99479.59
2018-08-04T08:17:59.974Z,99483.43
2018-08-04T08:20:35.876Z,99488.50
2018-08-04T08:23:12.546Z,99489.84
2018-08-04T08:25:56.877Z,99486.26
2018-08-04T08:28:33.471Z,99479.66
2018-08-04T08:31:08.999Z,99483.20
2018-08-04T08:33:43.818Z,99479.81
2018-08-04T08:36:14.612Z,99486.45
2018-08-04T08:41:27.244Z,99487.81
2018-08-04T08:43:59.515Z,99484.50
2018-08-04T08:46:36.803Z,99493.97
2018-08-04T08:49:05.548Z,99481.28
2018-08-04T08:51:38.296Z,99488.64
2018-08-04T08:54:12.262Z,99486.66
2018-08-04T08:56:44.436Z,99485.34
2018-08-04T08:59:17.703Z,99476.74
2018-08-04T09:01:46.807Z,99475.33
2018-08-04T09:04:21.207Z,99477.11
2018-08-04T09:06:52.505Z,99469.04
2018-08-04T09:09:24.500Z,99471.64
2018-08-04T09:11:53.153Z,99476.05
2018-08-04T09:14:31.384Z,99470.44
2018-08-04T09:17:04.728Z,99466.78
2018-08-04T09:19:33.759Z,99472.64
2018-08-04T09:22:02.365Z,99467.92
2018-08-04T09:24:30.908Z,99467.47
2018-08-04T09:26:59.951Z,99463.71
2018-08-04T09:29:28.612Z,99457.59
2018-08-04T09:31:58.198Z,99460.05
2018-08-04T09:34:26.723Z,99460.68
2018-08-04T09:36:55.300Z,99459.14
2018-08-04T09:39:26.832Z,99466.69
2018-08-04T09:42:02.751Z,99461.30
2018-08-04T09:44:41.473Z,99464.51
2018-08-04T09:47:17.021Z,99466.59
2018-08-04T09:49:49.617Z,99464.59
2018-08-04T09:52:24.774Z,99458.86
2018-08-04T09:54:59.946Z,99464.28
2018-08-04T09:57:34.702Z,99456.79
2018-08-04T10:00:10.728Z,99463.33
2018-08-04T10:02:39.337Z,99465.17
2018-08-04T10:05:07.873Z,99456.88
2018-08-04T10:07:40.966Z,99456.44
2018-08-04T10:10:13.409Z,99458.44
2018-08-04T10:12:45.067Z,99457.75
2018-08-04T10:15:19.107Z,99458.34
2018-08-04T10:17:53.073Z,99458.95
2018-08-04T10:20:26.957Z,99454.98
2018-08-04T10:23:03.514Z,99456.67
2018-08-04T10:25:36.507Z,99460.96
2018-08-04T10:28:05.116Z,99461.38
2018-08-04T10:30:37.575Z,99466.48
2018-08-04T10:33:10.756Z,99462.84
2018-08-04T10:35:42.962Z,99461.66
2018-08-04T10:38:16.134Z,99458.13
2018-08-04T10:40:49.605Z,99465.70
2018-08-04T10:43:23.555Z,99467.52
2018-08-04T10:45:55.932Z,99470.16
2018-08-04T10:48:31.307Z,99466.31
2018-08-04T10:51:05.230Z,99470.86
2018-08-04T10:56:21.355Z,99472.66
2018-08-04T10:59:00.363Z,99475.91
2018-08-04T11:01:30.189Z,99474.55
2018-08-04T11:03:58.795Z,99475.73
2018-08-04T11:06:37.431Z,99478.91
2018-08-04T11:09:18.324Z,99484.63
2018-08-04T11:12:01.382Z,99485.77
2018-08-04T11:14:39.139Z,99470.02
2018-08-04T11:17:15.494Z,99475.84
2018-08-04T11:19:57.914Z,99472.95
2018-08-04T11:22:39.910Z,99467.90
2018-08-04T11:25:20.192Z,99473.30
2018-08-04T11:27:58.568Z,99469.22
2018-08-04T11:30:40.249Z,99459.56
2018-08-04T11:33:22.697Z,99465.95
2018-08-04T11:36:02.373Z,99461.95
2018-08-04T11:38:44.015Z,99456.60
2018-08-04T11:41:21.744Z,99456.27
2018-08-04T11:43:59.848Z,99452.56
2018-08-04T11:46:35.688Z,99450.95
2018-08-04T11:49:13.587Z,99454.66
2018-08-04T11:51:53.300Z,99448.37
2018-08-04T11:54:33.201Z,99452.69
2018-08-04T11:57:13.032Z,99456.60
2018-08-04T11:59:51.188Z,99452.80
2018-08-04T12:02:28.221Z,99442.87
2018-08-04T12:05:06.944Z,99438.55
2018-08-04T12:07:48.588Z,99439.26
2018-08-04T12:13:08.170Z,99436.68
2018-08-04T12:15:51.382Z,99435.44
2018-08-04T12:18:32.298Z,99434.41
2018-08-04T12:21:10.862Z,99433.20
2018-08-04T12:23:52.372Z,99436.07
2018-08-04T12:26:37.231Z,99430.58
2018-08-04T12:29:13.867Z,99428.91
2018-08-04T12:31:55.975Z,99432.94
2018-08-04T12:34:43.666Z,99427.39
2018-08-04T12:37:25.960Z,99429.48
2018-08-04T12:40:07.254Z,99426.06
2018-08-04T12:42:45.983Z,99422.45
2018-08-04T12:45:22.739Z,99427.72
2018-08-04T12:48:06.841Z,99418.34
2018-08-04T12:50:50.790Z,99417.77
2018-08-04T12:53:29.217Z,99421.94
2018-08-04T12:56:09.428Z,99412.73
2018-08-04T12:58:45.272Z,99415.20
2018-08-04T13:01:27.208Z,99414.59
2018-08-04T13:04:01.942Z,99422.84
2018-08-04T13:06:38.212Z,99419.27
2018-08-04T13:09:18.317Z,99412.11
2018-08-04T13:12:01.179Z,99413.41
2018-08-04T13:14:39.940Z,99409.31
2018-08-04T13:17:17.084Z,99415.20
2018-08-04T13:19:56.060Z,99423.66
2018-08-04T13:22:33.984Z,99407.66
2018-08-04T13:25:12.379Z,99406.60
2018-08-04T13:27:49.779Z,99411.50
2018-08-04T13:30:32.983Z,99415.72
2018-08-04T13:33:13.877Z,99410.79
2018-08-04T13:35:52.590Z,99409.75
2018-08-04T13:38:34.939Z,99407.20
2018-08-04T13:41:11.655Z,99404.47
2018-08-04T13:43:57.635Z,99399.34
2018-08-04T13:49:30.550Z,99403.94
2018-08-04T13:52:10.190Z,99395.19
2018-08-04T13:54:49.588Z,99402.53
2018-08-04T14:00:17.284Z,99387.16
2018-08-04T14:05:41.141Z,99388.59
2018-08-04T14:08:09.893Z,99393.64
2018-08-04T14:10:53.822Z,99391.97
2018-08-04T14:13:31.956Z,99390.68
2018-08-04T14:16:01.005Z,99389.25
2018-08-04T14:18:29.557Z,99398.16
2018-08-04T14:20:58.175Z,99390.62
2018-08-04T14:23:26.744Z,99391.62
2018-08-04T14:25:55.309Z,99382.16
2018-08-04T14:28:23.953Z,99380.84
2018-08-04T14:30:53.140Z,99380.05
2018-08-04T14:33:22.041Z,99380.06
2018-08-04T14:35:50.616Z,99375.24
2018-08-04T14:38:19.140Z,99375.84
2018-08-04T14:40:47.709Z,99363.00
2018-08-04T14:43:26.359Z,99373.55
2018-08-04T14:46:06.928Z,99366.35
2018-08-04T14:48:45.102Z,99366.75
2018-08-04T14:51:14.216Z,99369.02
2018-08-04T14:53:42.976Z,99362.28
2018-08-04T14:56:11.504Z,99359.02
2018-08-04T14:58:40.109Z,99363.59
2018-08-04T15:01:09.260Z,99367.31
2018-08-04T15:03:37.819Z,99351.88
2018-08-04T15:06:06.363Z,99362.92
2018-08-04T15:08:34.908Z,99354.32
2018-08-04T15:11:03.449Z,99361.54
2018-08-04T15:13:31.997Z,99361.64
2018-08-04T15:16:00.515Z,99361.11
2018-08-04T15:18:29.080Z,99351.72
2018-08-04T15:20:57.616Z,99350.00
2018-08-04T15:23:26.169Z,99345.34
2018-08-04T15:25:54.688Z,99351.71
2018-08-04T15:28:29.816Z,99346.47
2018-08-04T15:30:58.354Z,99343.86
2018-08-04T15:33:26.896Z,99352.30
2018-08-04T15:35:55.478Z,99347.32
2018-08-04T15:38:24.268Z,99347.02
2018-08-04T15:40:52.854Z,99350.69
2018-08-04T15:43:21.455Z,99342.54
2018-08-04T15:45:50.906Z,99342.52
2018-08-04T15:48:19.636Z,99338.05
2018-08-04T15:50:48.452Z,99340.26
2018-08-04T15:53:17.008Z,99342.55
2018-08-04T15:55:45.520Z,99343.00
2018-08-04T15:58:14.073Z,99339.68
2018-08-04T16:00:42.601Z,99339.60
2018-08-04T16:03:11.149Z,99341.00
2018-08-04T16:05:40.028Z,99348.54
2018-08-04T16:08:08.664Z,99346.80
2018-08-04T16:10:37.210Z,99340.86
2018-08-04T16:13:05.787Z,99345.20
2018-08-04T16:15:34.312Z,99339.52
2018-08-04T16:18:02.875Z,99344.09
2018-08-04T16:20:31.402Z,99345.37
2018-08-04T16:22:59.953Z,99340.06
2018-08-04T16:25:28.469Z,99344.03
2018-08-04T16:27:57.012Z,99338.75
2018-08-04T16:30:25.527Z,99349.32
2018-08-04T16:32:54.084Z,99345.48
2018-08-04T16:35:22.606Z,99344.09
2018-08-04T16:37:51.152Z,99348.27
2018-08-04T16:40:19.676Z,99343.48
2018-08-04T16:42:48.236Z,99339.59
2018-08-04T16:45:16.838Z,99342.86
2018-08-04T16:47:45.405Z,99346.38
2018-08-04T16:50:13.941Z,99342.73
2018-08-04T16:52:42.517Z,99346.93
2018-08-04T16:55:11.849Z,99346.20
2018-08-04T16:57:40.420Z,99345.27
2018-08-04T17:00:08.992Z,99349.11
2018-08-04T17:02:37.996Z,99346.73
2018-08-04T17:05:06.629Z,99347.13
2018-08-04T17:07:35.157Z,99345.56
2018-08-04T17:10:03.724Z,99345.13
2018-08-04T17:12:32.269Z,99342.62
2018-08-04T17:15:00.844Z,99350.92
2018-08-04T17:17:29.394Z,99353.63
2018-08-04T17:19:57.968Z,99356.00
2018-08-04T17:22:26.546Z,99347.98
2018-08-04T17:24:55.232Z,99351.13
2018-08-04T17:27:23.860Z,99354.34
2018-08-04T17:29:52.456Z,99355.76
2018-08-04T17:32:20.988Z,99359.08
2018-08-04T17:34:49.616Z,99365.22
2018-08-04T17:37:18.211Z,99354.30
2018-08-04T17:39:46.791Z,99356.57
2018-08-04T17:42:15.589Z,99364.38
2018-08-04T17:44:44.613Z,99354.86
2018-08-04T17:47:13.156Z,99361.23
2018-08-04T17:49:41.762Z,99361.80
2018-08-04T17:52:10.313Z,99364.98
2018-08-04T17:54:38.992Z,99368.66
2018-08-04T17:57:24.008Z,99365.61
2018-08-04T18:00:08.325Z,99366.63
2018-08-04T18:02:45.522Z,99372.25
2018-08-04T18:05:22.666Z,99363.55
2018-08-04T18:08:08.417Z,99369.36
2018-08-04T18:10:47.858Z,99367.00
2018-08-04T18:13:29.291Z,99363.93
2018-08-04T18:16:06.839Z,99367.72
2018-08-04T18:18:46.091Z,99368.11
2018-08-04T18:21:27.462Z,99367.14
2018-08-04T18:24:27.338Z,99367.99
2018-08-04T18:27:17.453Z,99368.27
2018-08-04T18:29:49.552Z,99372.81
2018-08-04T18:32:19.757Z,99375.30
2018-08-04T18:34:59.600Z,99376.37
2018-08-04T18:37:39.846Z,99385.34
2018-08-04T18:40:19.776Z,99384.52
2018-08-04T18:42:58.793Z,99380.48
2018-08-04T18:45:36.875Z,99387.58
2018-08-04T18:48:15.009Z,99385.89
2018-08-04T18:50:59.594Z,99394.73
2018-08-04T18:53:37.674Z,99397.39
2018-08-04T18:56:20.433Z,99396.77
2018-08-04T18:59:03.955Z,99404.05
2018-08-04T19:01:45.795Z,99402.73
2018-08-04T19:04:31.266Z,99411.63
2018-08-04T19:07:09.373Z,99417.13
2018-08-04T19:09:54.872Z,99419.80
2018-08-04T19:12:33.076Z,99421.67
2018-08-04T19:15:24.539Z,99424.36
2018-08-04T19:18:01.020Z,99432.21
2018-08-04T19:23:41.638Z,99434.66
2018-08-04T19:26:20.757Z,99437.42
2018-08-04T19:29:13.221Z,99443.38
2018-08-04T19:31:59.495Z,99442.45
2018-08-04T19:34:36.816Z,99445.81
2018-08-04T19:37:15.792Z,99446.66
2018-08-04T19:39:59.243Z,99451.95
2018-08-04T19:42:40.970Z,99455.09
2018-08-04T19:45:22.585Z,99460.18
2018-08-04T19:48:02.884Z,99458.88
2018-08-04T19:50:39.024Z,99463.85
2018-08-04T19:53:21.924Z,99468.98
2018-08-04T19:55:59.377Z,99461.83
2018-08-04T19:58:38.090Z,99466.95
2018-08-04T20:01:16.025Z,99472.18
2018-08-04T20:03:56.100Z,99476.48
2018-08-04T20:06:41.414Z,99484.80
2018-08-04T20:09:24.204Z,99477.05
2018-08-04T20:12:06.375Z,99479.36
2018-08-04T20:14:47.728Z,99479.14
2018-08-04T20:17:16.590Z,99485.08
2018-08-04T20:19:45.480Z,99485.30
2018-08-04T20:22:16.299Z,99486.46
2018-08-04T20:24:45.157Z,99487.62
2018-08-04T20:27:13.817Z,99485.78
2018-08-04T20:29:42.384Z,99485.11
2018-08-04T20:32:10.949Z,99494.48
2018-08-04T20:34:39.476Z,99489.91
2018-08-04T20:37:08.073Z,99496.98
2018-08-04T20:39:36.597Z,99492.81
2018-08-04T20:42:05.192Z,99492.69
2018-08-04T20:44:33.808Z,99495.91
2018-08-04T20:47:03.023Z,99505.68
2018-08-04T20:49:31.588Z,99504.22
2018-08-04T20:52:00.161Z,99506.60
2018-08-04T20:54:29.408Z,99511.27
2018-08-04T20:56:57.968Z,99505.14
2018-08-04T20:59:34.491Z,99512.30
2018-08-04T21:02:13.319Z,99510.95
2018-08-04T21:04:55.858Z,99509.06
2018-08-04T21:07:26.760Z,99507.09
2018-08-04T21:09:58.976Z,99509.49
2018-08-04T21:12:27.589Z,99507.61
2018-08-04T21:14:56.151Z,99507.20
2018-08-04T21:17:27.052Z,99510.55
2018-08-04T21:19:59.948Z,99498.30
2018-08-04T21:22:36.416Z,99503.70
2018-08-04T21:25:11.083Z,99503.67
2018-08-04T21:27:42.190Z,99507.30
2018-08-04T21:30:11.940Z,99507.30
2018-08-04T21:32:46.996Z,99508.84
2018-08-04T21:35:17.047Z,99518.98
2018-08-04T21:37:45.609Z,99517.73
2018-08-04T21:40:14.236Z,99513.23
2018-08-04T21:42:42.861Z,99512.84
2018-08-04T21:45:11.429Z,99518.53
2018-08-04T21:47:39.969Z,99523.20
2018-08-04T21:50:08.558Z,99524.91
2018-08-04T21:52:37.112Z,99520.14
2018-08-04T21:55:05.792Z,99525.02
2018-08-04T21:57:34.324Z,99525.84
2018-08-04T22:00:02.923Z,99526.63
2018-08-04T22:02:31.536Z,99524.48
2018-08-04T22:05:01.223Z,99529.97
2018-08-04T22:07:42.585Z,99529.12
2018-08-04T22:10:11.885Z,99537.85
2018-08-04T22:12:40.754Z,99540.66
2018-08-04T22:15:10.491Z,99538.56
2018-08-04T22:17:39.066Z,99536.84
2018-08-04T22:20:16.666Z,99535.39
2018-08-04T22:22:45.879Z,99533.41
2018-08-04T22:25:20.299Z,99540.44
2018-08-04T22:27:50.240Z,99541.31
2018-08-04T22:30:25.076Z,99545.64
2018-08-04T22:32:56.726Z,99546.36
2018-08-04T22:35:27.056Z,99546.05
2018-08-04T22:37:58.012Z,99543.41
2018-08-04T22:40:30.774Z,99550.16
2018-08-04T22:42:59.484Z,99547.19
2018-08-04T22:45:33.958Z,99556.63
2018-08-04T22:48:03.178Z,99555.25
2018-08-04T22:50:31.873Z,99561.79
2018-08-04T22:53:00.405Z,99564.30
2018-08-04T22:55:29.188Z,99557.98
2018-08-04T22:57:57.748Z,99565.64
2018-08-04T23:00:26.472Z,99566.92
2018-08-04T23:02:57.017Z,99566.19
2018-08-04T23:05:25.632Z,99563.62
2018-08-04T23:07:54.180Z,99567.30
2018-08-04T23:12:42.157Z,99564.88
2018-08-04T23:15:11.600Z,99570.50
2018-08-04T23:17:40.131Z,99574.52
2018-08-04T23:20:08.713Z,99567.05
2018-08-04T23:22:37.644Z,99567.04
2018-08-04T23:25:06.465Z,99570.92
2018-08-04T23:27:37.417Z,99572.92
2018-08-04T23:30:06.033Z,99569.89
2018-08-04T23:32:34.637Z,99574.26
2018-08-04T23:35:03.648Z,99573.66
2018-08-04T23:37:32.263Z,99573.87
2018-08-04T23:40:00.828Z,99568.98
2018-08-04T23:42:29.378Z,99572.14
2018-08-04T23:44:57.993Z,99569.20
2018-08-04T23:47:26.917Z,99568.78
2018-08-04T23:49:55.532Z,99562.57
2018-08-04T23:52:24.413Z,99563.26
2018-08-04T23:54:53.749Z,99558.95
2018-08-04T23:57:22.335Z,99564.36
2018-08-04T23:59:51.064Z,99568.59
